Farmington, NM

3:26 AM MST on December 11, 2016 (GMT -0700)
East Mesa Verde Avenue | | Change Station

Elev 5452 ft 36.74 °N, 108.19 °W | Updated 8 minutes ago

Clear
Clear
32.2 °F
Feels Like 32 °F
N
0.6
Wind Variable Wind from East
Gusts 1.2 mph

Today
High -- | Low -- °F
--% Chance of Precip.
Yesterday
High -- | Low -- °F
Precip. -- in
Pressure 29.98 in
Visibility 10.0 miles
Clouds Clear
Windchill 32 °F
Dew Point 24 °F
Humidity 73%
Rainfall 0.00 in
Snow Depth Not available.
7:15 AM 4:57 PM
Waxing Gibbous, 90% visible
METAR KFMN 110953Z AUTO 07007KT 10SM CLR M01/M04 A2999 RMK AO2 SLP150 T10111039
Pressure 29.98 in
Visibility 10.0 miles
Clouds Clear
Windchill 32 °F
Dew Point 24 °F
Humidity 73%
Rainfall 0.00 in
Snow Depth Not available.
7:15 AM 4:57 PM
Waxing Gibbous, 90% visible
METAR KFMN 110953Z AUTO 07007KT 10SM CLR M01/M04 A2999 RMK AO2 SLP150 T10111039

10-Day Weather Forecast

Almanac

Astronomy

Dec. 11, 2016 Rise Set
Actual Time
Civil Twilight
Nautical Twilight
Astronomical Twilight
Moon
Length of Visible Light
Length of Day
Tomorrow will be .
, % of the Moon is Illuminated

Today's Extremes

State Highs State Lows

Community

WunderPhotos

Upload Photos

1,956,702 photos uploaded!

WunderBlog® & News

Nearby

Air Quality

  Air Quality AQ Index Pollutant
Not available.

Snow Depth

Station Depth Elevation

Earthquake Activity

City Distance Mag. Time & Date
Minimum magnitude displayed is 2.5.

Coastal Water Temperatures

Place Temperature

Stations

Nearby Weather Stations

Station Location Temp. Windchill Dew Point Humidity Wind Precip. Elev Updated Type
                   

Watches & Warnings

There are currently no watches in effect.